Aviation Digital Data Service (ADDS)

Output produced by TAFs form (2046 UTC 15 August 2018)
found at http://aviationweather.gov/adds/tafs/
 
METAR text: KFFZ 152047Z 24007KT 20SM BKN120 32/18 A2994
Conditions at: KFFZ (MESA/FALCON FLD , AZ, US) observed 2047 UTC 15 August 2018
Temperature: 32.0°C (90°F)
Dewpoint: 18.0°C (64°F) [RH = 43%]
Pressure (altimeter): 29.94 inches Hg (1014.0 mb)
Winds: from the WSW (240 degrees) at 8 MPH (7 knots; 3.6 m/s)
Visibility: 20 miles (32 km)
Ceiling: 12000 feet AGL
Clouds: broken clouds at 12000 feet AGL
Weather: no significant weather observed at this time

METAR text: KIWA 151947Z 00000KT 30SM BKN100 BKN150 31/17 A2995
Conditions at: KIWA (CHANDLER/MESA , AZ, US) observed 1947 UTC 15 August 2018
Temperature: 31.0°C (88°F)
Dewpoint: 17.0°C (63°F) [RH = 43%]
Pressure (altimeter): 29.95 inches Hg (1014.3 mb)
Winds: calm
Visibility: 30 miles (48 km)
Ceiling: 10000 feet AGL
Clouds: broken clouds at 10000 feet AGL
broken clouds at 15000 feet AGL
Weather: no significant weather observed at this time

Forecast for: KIWA (CHANDLER/MESA , AZ, US)
Text: KIWA 151728Z 1518/1618 14006KT P6SM BKN100 BKN250
Forecast period: 1800 to 1900 UTC 15 August 2018
Forecast type: FROM: standard forecast or significant change
Winds: from the SE (140 degrees) at 7 MPH (6 knots; 3.1 m/s)
Visibility: 6 or more miles (10+ km)
Ceiling: 10000 feet AGL
Clouds: broken clouds at 10000 feet AGL
broken clouds at 25000 feet AGL
Weather: no significant weather forecast for this period
Text: FM151900 24008KT P6SM SCT120 BKN160
Forecast period: 1900 UTC 15 August 2018 to 0700 UTC 16 August 2018
Forecast type: FROM: standard forecast or significant change
Winds: from the WSW (240 degrees) at 9 MPH (8 knots; 4.2 m/s)
Visibility: 6 or more miles (10+ km)
Ceiling: 16000 feet AGL
Clouds: scattered clouds at 12000 feet AGL
broken clouds at 16000 feet AGL
Weather: no significant weather forecast for this period
Text: FM160700 14010G20KT P6SM VCSH BKN080 BKN120 BKN250
Forecast period: 0700 to 1800 UTC 16 August 2018
Forecast type: FROM: standard forecast or significant change
Winds: from the SE (140 degrees) at 12 MPH (10 knots; 5.2 m/s)
gusting to 23 MPH (20 knots; 10.4 m/s)
Visibility: 6 or more miles (10+ km)
Ceiling: 8000 feet AGL
Clouds: broken clouds at 8000 feet AGL
broken clouds at 12000 feet AGL
broken clouds at 25000 feet AGL
Weather: VCSH  (showers in vicinity)